KCGI/CGI METAR and TAF weather

Enter ICAO airport designator
Station Type Date Time Source
KCGI METAR 2021/07/24 19:53 UTC NOAA

KCGI 241953Z 20004KT 10SM CLR 33/24 A2997 RMK AO2 SLP145 T03330239


Station Type Date Time Source
KCGI Decoded METAR 2021/07/24 19:53 UTC NOAA

CAPE GIRARDEAU REGIONAL, MO, United States (KCGI) 37-14N 089-35W 102M
Jul 24, 2021 - 03:53 PM EDT / 2021.07.24 1953 UTC
Wind: from the SSW (200 degrees) at 5 MPH (4 KT):0
Visibility: 10 mile(s):0
Sky conditions: clear
Temperature: 91.9 F (33.3 C)
Heat index: 102.4 F (39.1 C):1
Dew Point: 75.0 F (23.9 C)
Relative Humidity: 57%
Pressure (altimeter): 29.97 in. Hg (1014 hPa)
ob: KCGI 241953Z 20004KT 10SM CLR 33/24 A2997 RMK AO2 SLP145 T03330239
cycle: 20

Station Type Date Time Source
KCGI TAF 2021/07/24 20:03 UTC NOAA

TAF
AMD KCGI 242000Z 2420/2518 20005KT P6SM VCTS SCT050CB
FM250000 22004KT P6SM SCT250

Example: see airport list